sensor_id;sensor_type;location;lat;lon;timestamp;temperature;humidity
6102;DHT22;3081;50.584;7.032;2023-06-19T00:01:59;22.60;74.30
6102;DHT22;3081;50.584;7.032;2023-06-19T00:04:26;22.70;73.90
6102;DHT22;3081;50.584;7.032;2023-06-19T00:06:53;22.80;73.70
6102;DHT22;3081;50.584;7.032;2023-06-19T00:09:20;22.80;73.20
6102;DHT22;3081;50.584;7.032;2023-06-19T00:11:47;22.90;73.00
6102;DHT22;3081;50.584;7.032;2023-06-19T00:14:14;23.00;72.80
6102;DHT22;3081;50.584;7.032;2023-06-19T00:16:42;23.00;72.60
6102;DHT22;3081;50.584;7.032;2023-06-19T00:19:09;23.10;72.60
6102;DHT22;3081;50.584;7.032;2023-06-19T00:21:37;23.20;72.50
6102;DHT22;3081;50.584;7.032;2023-06-19T00:24:05;23.20;72.50
6102;DHT22;3081;50.584;7.032;2023-06-19T00:26:32;23.20;72.40
6102;DHT22;3081;50.584;7.032;2023-06-19T00:28:59;23.10;72.50
6102;DHT22;3081;50.584;7.032;2023-06-19T00:31:25;23.00;73.00
6102;DHT22;3081;50.584;7.032;2023-06-19T00:33:55;22.90;73.30
6102;DHT22;3081;50.584;7.032;2023-06-19T00:36:22;22.80;73.90
6102;DHT22;3081;50.584;7.032;2023-06-19T00:38:51;22.70;74.20
6102;DHT22;3081;50.584;7.032;2023-06-19T00:41:18;22.60;74.20
6102;DHT22;3081;50.584;7.032;2023-06-19T00:43:46;22.60;74.10
6102;DHT22;3081;50.584;7.032;2023-06-19T00:46:13;22.70;74.20
6102;DHT22;3081;50.584;7.032;2023-06-19T00:48:40;22.70;74.20
6102;DHT22;3081;50.584;7.032;2023-06-19T00:51:09;22.70;74.40
6102;DHT22;3081;50.584;7.032;2023-06-19T00:53:37;22.60;74.50
6102;DHT22;3081;50.584;7.032;2023-06-19T00:56:04;22.60;74.70
6102;DHT22;3081;50.584;7.032;2023-06-19T00:58:32;22.60;74.70
6102;DHT22;3081;50.584;7.032;2023-06-19T01:00:59;22.70;74.60
6102;DHT22;3081;50.584;7.032;2023-06-19T01:03:26;22.70;74.60
6102;DHT22;3081;50.584;7.032;2023-06-19T01:05:54;22.70;74.70
6102;DHT22;3081;50.584;7.032;2023-06-19T01:08:35;22.80;74.70
6102;DHT22;3081;50.584;7.032;2023-06-19T01:11:04;22.80;74.90
6102;DHT22;3081;50.584;7.032;2023-06-19T01:13:37;22.60;75.00
6102;DHT22;3081;50.584;7.032;2023-06-19T01:16:05;22.60;75.50
6102;DHT22;3081;50.584;7.032;2023-06-19T01:18:33;22.60;75.60
6102;DHT22;3081;50.584;7.032;2023-06-19T01:21:12;22.50;75.60
6102;DHT22;3081;50.584;7.032;2023-06-19T01:23:42;22.50;75.90
6102;DHT22;3081;50.584;7.032;2023-06-19T01:26:09;22.50;75.90
6102;DHT22;3081;50.584;7.032;2023-06-19T01:28:38;22.60;76.00
6102;DHT22;3081;50.584;7.032;2023-06-19T01:31:10;22.50;75.90
6102;DHT22;3081;50.584;7.032;2023-06-19T01:33:38;22.50;75.90
6102;DHT22;3081;50.584;7.032;2023-06-19T01:36:07;22.50;76.20
6102;DHT22;3081;50.584;7.032;2023-06-19T01:38:35;22.50;76.60
6102;DHT22;3081;50.584;7.032;2023-06-19T01:41:05;22.40;76.90
6102;DHT22;3081;50.584;7.032;2023-06-19T01:43:33;22.30;77.20
6102;DHT22;3081;50.584;7.032;2023-06-19T01:46:00;22.30;77.40
6102;DHT22;3081;50.584;7.032;2023-06-19T01:48:28;22.30;77.70
6102;DHT22;3081;50.584;7.032;2023-06-19T01:50:55;22.20;77.90
6102;DHT22;3081;50.584;7.032;2023-06-19T01:53:22;22.20;78.10
6102;DHT22;3081;50.584;7.032;2023-06-19T01:55:49;22.20;78.20
6102;DHT22;3081;50.584;7.032;2023-06-19T01:58:17;22.10;78.40
6102;DHT22;3081;50.584;7.032;2023-06-19T02:00:44;22.10;78.70
6102;DHT22;3081;50.584;7.032;2023-06-19T02:03:11;22.10;78.90
6102;DHT22;3081;50.584;7.032;2023-06-19T02:05:38;22.10;79.30
6102;DHT22;3081;50.584;7.032;2023-06-19T02:08:05;22.10;79.60
6102;DHT22;3081;50.584;7.032;2023-06-19T02:10:32;22.00;80.00
6102;DHT22;3081;50.584;7.032;2023-06-19T02:12:59;21.90;80.40
6102;DHT22;3081;50.584;7.032;2023-06-19T02:15:28;22.00;80.50
6102;DHT22;3081;50.584;7.032;2023-06-19T02:17:55;21.90;80.50
6102;DHT22;3081;50.584;7.032;2023-06-19T02:20:22;21.90;80.70
6102;DHT22;3081;50.584;7.032;2023-06-19T02:22:50;21.90;81.10
6102;DHT22;3081;50.584;7.032;2023-06-19T02:25:17;21.90;81.40
6102;DHT22;3081;50.584;7.032;2023-06-19T02:27:44;21.80;81.70
6102;DHT22;3081;50.584;7.032;2023-06-19T02:30:12;21.80;82.30
6102;DHT22;3081;50.584;7.032;2023-06-19T02:32:40;21.70;83.40
6102;DHT22;3081;50.584;7.032;2023-06-19T02:35:09;21.70;82.90
6102;DHT22;3081;50.584;7.032;2023-06-19T02:37:36;21.70;83.00
6102;DHT22;3081;50.584;7.032;2023-06-19T02:40:04;21.70;83.30
6102;DHT22;3081;50.584;7.032;2023-06-19T02:42:31;21.70;83.50
6102;DHT22;3081;50.584;7.032;2023-06-19T02:44:58;21.70;83.60
6102;DHT22;3081;50.584;7.032;2023-06-19T02:47:29;21.80;83.80
6102;DHT22;3081;50.584;7.032;2023-06-19T02:49:58;21.80;84.30
6102;DHT22;3081;50.584;7.032;2023-06-19T02:52:25;21.70;84.70
6102;DHT22;3081;50.584;7.032;2023-06-19T02:54:52;21.70;84.80
6102;DHT22;3081;50.584;7.032;2023-06-19T02:57:19;21.60;85.10
6102;DHT22;3081;50.584;7.032;2023-06-19T02:59:46;21.60;85.30
6102;DHT22;3081;50.584;7.032;2023-06-19T03:02:13;21.60;85.70
6102;DHT22;3081;50.584;7.032;2023-06-19T03:04:40;21.60;86.30
6102;DHT22;3081;50.584;7.032;2023-06-19T03:07:09;21.60;86.70
6102;DHT22;3081;50.584;7.032;2023-06-19T03:09:36;21.50;87.50
6102;DHT22;3081;50.584;7.032;2023-06-19T03:12:03;21.50;88.40
6102;DHT22;3081;50.584;7.032;2023-06-19T03:14:30;21.40;89.00
6102;DHT22;3081;50.584;7.032;2023-06-19T03:16:57;21.40;89.80
6102;DHT22;3081;50.584;7.032;2023-06-19T03:19:24;21.40;90.10
6102;DHT22;3081;50.584;7.032;2023-06-19T03:21:51;21.40;90.50
6102;DHT22;3081;50.584;7.032;2023-06-19T03:24:19;21.30;90.70
6102;DHT22;3081;50.584;7.032;2023-06-19T03:26:46;21.20;91.10
6102;DHT22;3081;50.584;7.032;2023-06-19T03:29:13;21.20;91.50
6102;DHT22;3081;50.584;7.032;2023-06-19T03:31:40;21.20;92.00
6102;DHT22;3081;50.584;7.032;2023-06-19T03:34:07;21.10;92.30
6102;DHT22;3081;50.584;7.032;2023-06-19T03:36:34;21.10;92.70
6102;DHT22;3081;50.584;7.032;2023-06-19T03:39:00;21.10;93.20
6102;DHT22;3081;50.584;7.032;2023-06-19T03:41:29;21.00;93.70
6102;DHT22;3081;50.584;7.032;2023-06-19T03:43:56;21.00;94.10
6102;DHT22;3081;50.584;7.032;2023-06-19T03:46:22;20.90;94.50
6102;DHT22;3081;50.584;7.032;2023-06-19T03:48:49;20.90;94.90
6102;DHT22;3081;50.584;7.032;2023-06-19T03:51:16;20.80;95.40
6102;DHT22;3081;50.584;7.032;2023-06-19T03:53:43;20.80;95.90
6102;DHT22;3081;50.584;7.032;2023-06-19T03:56:10;20.80;96.40
6102;DHT22;3081;50.584;7.032;2023-06-19T03:58:38;20.80;96.80
6102;DHT22;3081;50.584;7.032;2023-06-19T04:01:05;20.70;97.30
6102;DHT22;3081;50.584;7.032;2023-06-19T04:03:32;20.70;97.60
6102;DHT22;3081;50.584;7.032;2023-06-19T04:05:59;20.70;98.00
6102;DHT22;3081;50.584;7.032;2023-06-19T04:08:26;20.70;98.30
6102;DHT22;3081;50.584;7.032;2023-06-19T04:10:53;20.60;98.60
6102;DHT22;3081;50.584;7.032;2023-06-19T04:13:20;20.70;98.90
6102;DHT22;3081;50.584;7.032;2023-06-19T04:15:48;20.60;99.20
6102;DHT22;3081;50.584;7.032;2023-06-19T04:18:15;20.60;99.50
6102;DHT22;3081;50.584;7.032;2023-06-19T04:20:42;20.60;99.90
6102;DHT22;3081;50.584;7.032;2023-06-19T04:23:09;20.60;99.90
6102;DHT22;3081;50.584;7.032;2023-06-19T04:25:36;20.50;99.90
6102;DHT22;3081;50.584;7.032;2023-06-19T04:28:03;20.50;99.90
6102;DHT22;3081;50.584;7.032;2023-06-19T04:30:30;20.50;99.90
6102;DHT22;3081;50.584;7.032;2023-06-19T04:32:59;20.50;99.90
6102;DHT22;3081;50.584;7.032;2023-06-19T04:35:26;20.50;99.90
6102;DHT22;3081;50.584;7.032;2023-06-19T04:37:53;20.60;99.90
6102;DHT22;3081;50.584;7.032;2023-06-19T04:40:20;20.60;99.90
6102;DHT22;3081;50.584;7.032;2023-06-19T04:42:47;20.60;99.90
6102;DHT22;3081;50.584;7.032;2023-06-19T04:45:14;20.60;99.90
6102;DHT22;3081;50.584;7.032;2023-06-19T04:47:41;20.60;99.90
6102;DHT22;3081;50.584;7.032;2023-06-19T04:50:11;20.60;99.90
6102;DHT22;3081;50.584;7.032;2023-06-19T04:52:38;20.60;99.90
6102;DHT22;3081;50.584;7.032;2023-06-19T04:55:05;20.60;99.90
6102;DHT22;3081;50.584;7.032;2023-06-19T04:57:34;20.60;99.90
6102;DHT22;3081;50.584;7.032;2023-06-19T05:00:03;20.60;99.90
6102;DHT22;3081;50.584;7.032;2023-06-19T05:02:31;20.60;99.90
6102;DHT22;3081;50.584;7.032;2023-06-19T05:04:58;20.60;99.90
6102;DHT22;3081;50.584;7.032;2023-06-19T05:07:29;20.60;99.90
6102;DHT22;3081;50.584;7.032;2023-06-19T05:09:56;20.60;99.90
6102;DHT22;3081;50.584;7.032;2023-06-19T05:12:23;20.60;99.90
6102;DHT22;3081;50.584;7.032;2023-06-19T05:14:50;20.60;99.90
6102;DHT22;3081;50.584;7.032;2023-06-19T05:17:17;20.60;99.90
6102;DHT22;3081;50.584;7.032;2023-06-19T05:19:44;20.70;99.90
6102;DHT22;3081;50.584;7.032;2023-06-19T05:22:11;20.80;99.90
6102;DHT22;3081;50.584;7.032;2023-06-19T05:24:40;21.00;99.90
6102;DHT22;3081;50.584;7.032;2023-06-19T05:27:07;21.00;99.90
6102;DHT22;3081;50.584;7.032;2023-06-19T05:29:34;21.10;99.90
6102;DHT22;3081;50.584;7.032;2023-06-19T05:32:00;21.20;99.90
6102;DHT22;3081;50.584;7.032;2023-06-19T05:34:27;21.20;99.90
6102;DHT22;3081;50.584;7.032;2023-06-19T05:36:55;21.20;99.90
6102;DHT22;3081;50.584;7.032;2023-06-19T05:39:22;21.30;99.90
6102;DHT22;3081;50.584;7.032;2023-06-19T05:41:50;21.50;99.90
6102;DHT22;3081;50.584;7.032;2023-06-19T05:44:17;21.90;99.90
6102;DHT22;3081;50.584;7.032;2023-06-19T05:46:44;22.00;99.90
6102;DHT22;3081;50.584;7.032;2023-06-19T05:49:11;22.10;99.90
6102;DHT22;3081;50.584;7.032;2023-06-19T05:51:38;22.20;99.90
6102;DHT22;3081;50.584;7.032;2023-06-19T05:54:05;22.30;99.90
6102;DHT22;3081;50.584;7.032;2023-06-19T05:56:32;22.40;99.90
6102;DHT22;3081;50.584;7.032;2023-06-19T05:59:01;22.60;99.90
6102;DHT22;3081;50.584;7.032;2023-06-19T06:01:28;22.70;99.90
6102;DHT22;3081;50.584;7.032;2023-06-19T06:03:55;22.70;99.90
6102;DHT22;3081;50.584;7.032;2023-06-19T06:06:23;22.90;99.90
6102;DHT22;3081;50.584;7.032;2023-06-19T06:08:51;23.00;99.90
6102;DHT22;3081;50.584;7.032;2023-06-19T06:11:18;23.10;99.90
6102;DHT22;3081;50.584;7.032;2023-06-19T06:13:45;23.10;99.90
6102;DHT22;3081;50.584;7.032;2023-06-19T06:16:13;23.00;99.90
6102;DHT22;3081;50.584;7.032;2023-06-19T06:18:41;22.90;99.90
6102;DHT22;3081;50.584;7.032;2023-06-19T06:21:08;23.00;99.90
6102;DHT22;3081;50.584;7.032;2023-06-19T06:23:34;23.10;98.50
6102;DHT22;3081;50.584;7.032;2023-06-19T06:26:01;23.10;98.10
6102;DHT22;3081;50.584;7.032;2023-06-19T06:28:28;23.10;98.70
6102;DHT22;3081;50.584;7.032;2023-06-19T06:30:56;23.20;97.40
6102;DHT22;3081;50.584;7.032;2023-06-19T06:33:25;23.00;98.10
6102;DHT22;3081;50.584;7.032;2023-06-19T06:35:54;23.00;98.50
6102;DHT22;3081;50.584;7.032;2023-06-19T06:38:21;23.20;97.90
6102;DHT22;3081;50.584;7.032;2023-06-19T06:40:48;23.40;97.90
6102;DHT22;3081;50.584;7.032;2023-06-19T06:43:15;23.50;97.20
6102;DHT22;3081;50.584;7.032;2023-06-19T06:45:41;23.40;96.80
6102;DHT22;3081;50.584;7.032;2023-06-19T06:48:08;23.30;96.90
6102;DHT22;3081;50.584;7.032;2023-06-19T06:50:37;23.20;97.30
6102;DHT22;3081;50.584;7.032;2023-06-19T06:53:04;23.10;96.90
6102;DHT22;3081;50.584;7.032;2023-06-19T06:55:30;23.00;96.50
6102;DHT22;3081;50.584;7.032;2023-06-19T06:57:57;22.90;96.40
6102;DHT22;3081;50.584;7.032;2023-06-19T07:00:24;22.90;96.80
6102;DHT22;3081;50.584;7.032;2023-06-19T07:02:51;22.90;96.50
6102;DHT22;3081;50.584;7.032;2023-06-19T07:05:18;23.10;96.10
6102;DHT22;3081;50.584;7.032;2023-06-19T07:07:47;23.30;95.10
6102;DHT22;3081;50.584;7.032;2023-06-19T07:10:14;23.50;94.40
6102;DHT22;3081;50.584;7.032;2023-06-19T07:12:47;23.50;93.60
6102;DHT22;3081;50.584;7.032;2023-06-19T07:15:15;23.60;93.50
6102;DHT22;3081;50.584;7.032;2023-06-19T07:17:43;23.70;92.80
6102;DHT22;3081;50.584;7.032;2023-06-19T07:20:11;24.00;92.30
6102;DHT22;3081;50.584;7.032;2023-06-19T07:22:38;24.10;92.10
6102;DHT22;3081;50.584;7.032;2023-06-19T07:25:09;24.20;91.70
6102;DHT22;3081;50.584;7.032;2023-06-19T07:27:36;24.20;91.80
6102;DHT22;3081;50.584;7.032;2023-06-19T07:30:04;24.30;92.10
6102;DHT22;3081;50.584;7.032;2023-06-19T07:32:31;24.30;91.90
6102;DHT22;3081;50.584;7.032;2023-06-19T07:34:58;24.30;91.80
6102;DHT22;3081;50.584;7.032;2023-06-19T07:37:25;24.30;92.20
6102;DHT22;3081;50.584;7.032;2023-06-19T07:39:52;24.40;91.60
6102;DHT22;3081;50.584;7.032;2023-06-19T07:42:20;24.50;91.70
6102;DHT22;3081;50.584;7.032;2023-06-19T07:44:47;24.60;91.20
6102;DHT22;3081;50.584;7.032;2023-06-19T07:47:16;24.80;91.00
6102;DHT22;3081;50.584;7.032;2023-06-19T07:49:43;25.00;90.50
6102;DHT22;3081;50.584;7.032;2023-06-19T07:52:10;25.30;89.80
6102;DHT22;3081;50.584;7.032;2023-06-19T07:54:49;25.30;87.50
6102;DHT22;3081;50.584;7.032;2023-06-19T07:57:16;25.10;87.30
6102;DHT22;3081;50.584;7.032;2023-06-19T07:59:45;24.90;87.60
6102;DHT22;3081;50.584;7.032;2023-06-19T08:02:12;24.70;88.60
6102;DHT22;3081;50.584;7.032;2023-06-19T08:04:39;24.40;89.10
6102;DHT22;3081;50.584;7.032;2023-06-19T08:07:06;24.30;90.00
6102;DHT22;3081;50.584;7.032;2023-06-19T08:09:33;24.50;90.20
6102;DHT22;3081;50.584;7.032;2023-06-19T08:12:00;24.70;88.50
6102;DHT22;3081;50.584;7.032;2023-06-19T08:14:27;24.70;88.10
6102;DHT22;3081;50.584;7.032;2023-06-19T08:16:55;24.70;89.00
6102;DHT22;3081;50.584;7.032;2023-06-19T08:19:22;24.60;89.90
6102;DHT22;3081;50.584;7.032;2023-06-19T08:21:49;24.60;89.20
6102;DHT22;3081;50.584;7.032;2023-06-19T08:24:17;24.60;89.30
6102;DHT22;3081;50.584;7.032;2023-06-19T08:26:44;24.70;89.30
6102;DHT22;3081;50.584;7.032;2023-06-19T08:29:11;24.80;89.20
6102;DHT22;3081;50.584;7.032;2023-06-19T08:31:38;24.90;88.40
6102;DHT22;3081;50.584;7.032;2023-06-19T08:34:06;25.10;88.60
6102;DHT22;3081;50.584;7.032;2023-06-19T08:36:35;25.10;87.30
6102;DHT22;3081;50.584;7.032;2023-06-19T08:39:02;25.10;87.60
6102;DHT22;3081;50.584;7.032;2023-06-19T08:41:29;25.10;88.00
6102;DHT22;3081;50.584;7.032;2023-06-19T08:43:56;25.30;87.00
6102;DHT22;3081;50.584;7.032;2023-06-19T08:46:23;25.40;86.50
6102;DHT22;3081;50.584;7.032;2023-06-19T08:48:50;25.50;85.90
6102;DHT22;3081;50.584;7.032;2023-06-19T08:51:18;25.80;86.10
6102;DHT22;3081;50.584;7.032;2023-06-19T08:53:47;26.10;83.20
6102;DHT22;3081;50.584;7.032;2023-06-19T08:56:16;26.10;82.70
6102;DHT22;3081;50.584;7.032;2023-06-19T08:58:43;26.30;83.00
6102;DHT22;3081;50.584;7.032;2023-06-19T09:01:10;26.70;82.30
6102;DHT22;3081;50.584;7.032;2023-06-19T09:03:37;27.00;80.90
6102;DHT22;3081;50.584;7.032;2023-06-19T09:06:04;26.90;79.90
6102;DHT22;3081;50.584;7.032;2023-06-19T09:08:34;26.70;79.50
6102;DHT22;3081;50.584;7.032;2023-06-19T09:11:02;26.50;80.00
6102;DHT22;3081;50.584;7.032;2023-06-19T09:13:30;26.30;80.90
6102;DHT22;3081;50.584;7.032;2023-06-19T09:15:58;26.10;81.50
6102;DHT22;3081;50.584;7.032;2023-06-19T09:18:29;25.70;82.30
6102;DHT22;3081;50.584;7.032;2023-06-19T09:20:57;25.70;82.80
6102;DHT22;3081;50.584;7.032;2023-06-19T09:23:24;25.50;83.90
6102;DHT22;3081;50.584;7.032;2023-06-19T09:25:53;25.40;84.00
6102;DHT22;3081;50.584;7.032;2023-06-19T09:28:22;25.50;83.80
6102;DHT22;3081;50.584;7.032;2023-06-19T09:30:56;25.60;83.30
6102;DHT22;3081;50.584;7.032;2023-06-19T09:33:26;25.70;83.30
6102;DHT22;3081;50.584;7.032;2023-06-19T09:35:54;25.60;83.00
6102;DHT22;3081;50.584;7.032;2023-06-19T09:38:23;25.50;82.80
6102;DHT22;3081;50.584;7.032;2023-06-19T09:40:53;25.60;82.60
6102;DHT22;3081;50.584;7.032;2023-06-19T09:43:24;25.90;83.40
6102;DHT22;3081;50.584;7.032;2023-06-19T09:45:55;26.60;82.20
6102;DHT22;3081;50.584;7.032;2023-06-19T09:48:27;27.00;79.80
6102;DHT22;3081;50.584;7.032;2023-06-19T09:51:00;27.40;78.00
6102;DHT22;3081;50.584;7.032;2023-06-19T09:53:29;28.10;76.60
6102;DHT22;3081;50.584;7.032;2023-06-19T09:55:58;28.90;73.90
6102;DHT22;3081;50.584;7.032;2023-06-19T09:58:26;29.60;72.60
6102;DHT22;3081;50.584;7.032;2023-06-19T10:00:54;29.80;68.80
6102;DHT22;3081;50.584;7.032;2023-06-19T10:03:30;29.50;68.90
6102;DHT22;3081;50.584;7.032;2023-06-19T10:05:58;29.50;69.70
6102;DHT22;3081;50.584;7.032;2023-06-19T10:08:27;30.10;66.90
6102;DHT22;3081;50.584;7.032;2023-06-19T10:10:55;30.60;66.70
6102;DHT22;3081;50.584;7.032;2023-06-19T10:13:31;31.00;63.70
6102;DHT22;3081;50.584;7.032;2023-06-19T10:15:58;31.00;63.60
6102;DHT22;3081;50.584;7.032;2023-06-19T10:18:25;31.20;61.80
6102;DHT22;3081;50.584;7.032;2023-06-19T10:20:53;31.50;62.10
6102;DHT22;3081;50.584;7.032;2023-06-19T10:23:22;31.70;59.90
6102;DHT22;3081;50.584;7.032;2023-06-19T10:25:55;32.00;59.70
6102;DHT22;3081;50.584;7.032;2023-06-19T10:28:25;32.30;59.30
6102;DHT22;3081;50.584;7.032;2023-06-19T10:30:53;32.00;59.00
6102;DHT22;3081;50.584;7.032;2023-06-19T10:33:21;32.10;59.10
6102;DHT22;3081;50.584;7.032;2023-06-19T10:35:48;31.60;58.80
6102;DHT22;3081;50.584;7.032;2023-06-19T10:38:16;31.40;59.40
6102;DHT22;3081;50.584;7.032;2023-06-19T10:40:44;31.10;59.30
6102;DHT22;3081;50.584;7.032;2023-06-19T10:43:11;30.70;59.20
6102;DHT22;3081;50.584;7.032;2023-06-19T10:45:39;30.70;60.00
6102;DHT22;3081;50.584;7.032;2023-06-19T10:48:06;31.60;59.70
6102;DHT22;3081;50.584;7.032;2023-06-19T10:50:37;32.80;57.40
6102;DHT22;3081;50.584;7.032;2023-06-19T10:53:06;32.80;57.40
6102;DHT22;3081;50.584;7.032;2023-06-19T10:55:34;32.90;57.00
6102;DHT22;3081;50.584;7.032;2023-06-19T10:58:01;33.60;57.00
6102;DHT22;3081;50.584;7.032;2023-06-19T11:00:29;34.00;55.20
6102;DHT22;3081;50.584;7.032;2023-06-19T11:02:58;34.10;54.50
6102;DHT22;3081;50.584;7.032;2023-06-19T11:05:26;34.20;53.70
6102;DHT22;3081;50.584;7.032;2023-06-19T11:07:55;34.00;54.20
6102;DHT22;3081;50.584;7.032;2023-06-19T11:10:23;34.10;53.20
6102;DHT22;3081;50.584;7.032;2023-06-19T11:12:53;34.20;53.50
6102;DHT22;3081;50.584;7.032;2023-06-19T11:15:28;34.50;52.00
6102;DHT22;3081;50.584;7.032;2023-06-19T11:17:55;34.20;52.50
6102;DHT22;3081;50.584;7.032;2023-06-19T11:20:24;34.40;52.50
6102;DHT22;3081;50.584;7.032;2023-06-19T11:22:55;34.70;52.10
6102;DHT22;3081;50.584;7.032;2023-06-19T11:25:22;34.90;51.70
6102;DHT22;3081;50.584;7.032;2023-06-19T11:27:49;34.90;51.80
6102;DHT22;3081;50.584;7.032;2023-06-19T11:30:17;34.80;51.50
6102;DHT22;3081;50.584;7.032;2023-06-19T11:32:46;34.40;52.10
6102;DHT22;3081;50.584;7.032;2023-06-19T11:35:16;34.50;51.90
6102;DHT22;3081;50.584;7.032;2023-06-19T11:37:44;34.90;51.60
6102;DHT22;3081;50.584;7.032;2023-06-19T11:40:11;35.50;50.90
6102;DHT22;3081;50.584;7.032;2023-06-19T11:42:47;35.80;49.80
6102;DHT22;3081;50.584;7.032;2023-06-19T11:45:15;36.20;49.20
6102;DHT22;3081;50.584;7.032;2023-06-19T11:47:43;35.80;49.60
6102;DHT22;3081;50.584;7.032;2023-06-19T11:50:12;35.20;49.80
6102;DHT22;3081;50.584;7.032;2023-06-19T11:52:39;34.80;50.80
6102;DHT22;3081;50.584;7.032;2023-06-19T11:55:08;34.70;51.20
6102;DHT22;3081;50.584;7.032;2023-06-19T11:57:35;35.30;50.60
6102;DHT22;3081;50.584;7.032;2023-06-19T12:00:03;36.00;49.20
6102;DHT22;3081;50.584;7.032;2023-06-19T12:02:35;36.60;49.60
6102;DHT22;3081;50.584;7.032;2023-06-19T12:05:02;37.50;48.40
6102;DHT22;3081;50.584;7.032;2023-06-19T12:07:29;38.10;46.70
6102;DHT22;3081;50.584;7.032;2023-06-19T12:09:55;38.20;46.30
6102;DHT22;3081;50.584;7.032;2023-06-19T12:12:24;37.70;46.30
6102;DHT22;3081;50.584;7.032;2023-06-19T12:14:51;37.00;47.10
6102;DHT22;3081;50.584;7.032;2023-06-19T12:17:18;36.90;48.20
6102;DHT22;3081;50.584;7.032;2023-06-19T12:19:45;37.50;46.20
6102;DHT22;3081;50.584;7.032;2023-06-19T12:22:12;37.70;45.70
6102;DHT22;3081;50.584;7.032;2023-06-19T12:24:39;37.70;45.80
6102;DHT22;3081;50.584;7.032;2023-06-19T12:27:06;38.00;46.20
6102;DHT22;3081;50.584;7.032;2023-06-19T12:29:34;38.60;46.10
6102;DHT22;3081;50.584;7.032;2023-06-19T12:32:02;39.40;44.50
6102;DHT22;3081;50.584;7.032;2023-06-19T12:34:29;40.00;42.80
6102;DHT22;3081;50.584;7.032;2023-06-19T12:36:56;39.90;42.40
6102;DHT22;3081;50.584;7.032;2023-06-19T12:39:23;39.90;41.60
6102;DHT22;3081;50.584;7.032;2023-06-19T12:41:51;40.10;41.80
6102;DHT22;3081;50.584;7.032;2023-06-19T12:44:18;40.20;42.00
6102;DHT22;3081;50.584;7.032;2023-06-19T12:46:47;40.90;42.00
6102;DHT22;3081;50.584;7.032;2023-06-19T12:49:14;41.00;40.20
6102;DHT22;3081;50.584;7.032;2023-06-19T12:51:40;40.70;40.90
6102;DHT22;3081;50.584;7.032;2023-06-19T12:54:07;40.80;40.70
6102;DHT22;3081;50.584;7.032;2023-06-19T12:56:34;40.70;40.90
6102;DHT22;3081;50.584;7.032;2023-06-19T12:59:01;41.10;40.40
6102;DHT22;3081;50.584;7.032;2023-06-19T13:01:28;41.00;40.70
6102;DHT22;3081;50.584;7.032;2023-06-19T13:03:56;40.90;41.30
6102;DHT22;3081;50.584;7.032;2023-06-19T13:06:23;40.40;40.80
6102;DHT22;3081;50.584;7.032;2023-06-19T13:08:50;39.80;41.00
6102;DHT22;3081;50.584;7.032;2023-06-19T13:11:17;38.90;42.10
6102;DHT22;3081;50.584;7.032;2023-06-19T13:13:44;38.60;42.30
6102;DHT22;3081;50.584;7.032;2023-06-19T13:16:11;38.60;42.30
6102;DHT22;3081;50.584;7.032;2023-06-19T13:18:38;38.00;42.80
6102;DHT22;3081;50.584;7.032;2023-06-19T13:21:06;37.40;43.80
6102;DHT22;3081;50.584;7.032;2023-06-19T13:23:33;37.80;44.20
6102;DHT22;3081;50.584;7.032;2023-06-19T13:26:00;38.00;43.70
6102;DHT22;3081;50.584;7.032;2023-06-19T13:28:27;37.70;43.80
6102;DHT22;3081;50.584;7.032;2023-06-19T13:30:55;37.80;43.60
6102;DHT22;3081;50.584;7.032;2023-06-19T13:33:22;38.70;43.80
6102;DHT22;3081;50.584;7.032;2023-06-19T13:35:49;40.40;42.40
6102;DHT22;3081;50.584;7.032;2023-06-19T13:38:17;41.20;41.20
6102;DHT22;3081;50.584;7.032;2023-06-19T13:40:44;42.00;40.30
6102;DHT22;3081;50.584;7.032;2023-06-19T13:43:11;42.70;39.50
6102;DHT22;3081;50.584;7.032;2023-06-19T13:45:38;43.50;39.20
6102;DHT22;3081;50.584;7.032;2023-06-19T13:48:05;44.10;37.60
6102;DHT22;3081;50.584;7.032;2023-06-19T13:50:32;43.70;38.10
6102;DHT22;3081;50.584;7.032;2023-06-19T13:52:59;44.10;38.00
6102;DHT22;3081;50.584;7.032;2023-06-19T13:55:28;45.10;37.20
6102;DHT22;3081;50.584;7.032;2023-06-19T13:57:54;45.80;36.10
6102;DHT22;3081;50.584;7.032;2023-06-19T14:00:22;45.50;36.20
6102;DHT22;3081;50.584;7.032;2023-06-19T14:02:48;45.70;36.20
6102;DHT22;3081;50.584;7.032;2023-06-19T14:05:16;46.30;36.00
6102;DHT22;3081;50.584;7.032;2023-06-19T14:07:43;46.90;35.00
6102;DHT22;3081;50.584;7.032;2023-06-19T14:10:10;47.00;35.30
6102;DHT22;3081;50.584;7.032;2023-06-19T14:12:39;47.30;34.80
6102;DHT22;3081;50.584;7.032;2023-06-19T14:15:07;47.10;34.20
6102;DHT22;3081;50.584;7.032;2023-06-19T14:17:35;46.20;35.10
6102;DHT22;3081;50.584;7.032;2023-06-19T14:20:03;46.10;35.30
6102;DHT22;3081;50.584;7.032;2023-06-19T14:22:31;46.30;35.20
6102;DHT22;3081;50.584;7.032;2023-06-19T14:24:58;46.80;35.00
6102;DHT22;3081;50.584;7.032;2023-06-19T14:27:27;47.40;34.40
6102;DHT22;3081;50.584;7.032;2023-06-19T14:29:55;48.00;34.50
6102;DHT22;3081;50.584;7.032;2023-06-19T14:32:22;48.60;34.20
6102;DHT22;3081;50.584;7.032;2023-06-19T14:34:50;48.40;34.10
6102;DHT22;3081;50.584;7.032;2023-06-19T14:37:17;47.40;34.10
6102;DHT22;3081;50.584;7.032;2023-06-19T14:39:43;45.70;35.10
6102;DHT22;3081;50.584;7.032;2023-06-19T14:42:10;45.70;35.20
6102;DHT22;3081;50.584;7.032;2023-06-19T14:44:37;46.10;34.50
6102;DHT22;3081;50.584;7.032;2023-06-19T14:47:06;46.30;34.50
6102;DHT22;3081;50.584;7.032;2023-06-19T14:49:33;47.00;34.60
6102;DHT22;3081;50.584;7.032;2023-06-19T14:52:00;45.90;34.90
6102;DHT22;3081;50.584;7.032;2023-06-19T14:54:28;45.50;34.50
6102;DHT22;3081;50.584;7.032;2023-06-19T14:56:54;45.50;35.00
6102;DHT22;3081;50.584;7.032;2023-06-19T14:59:21;46.70;34.20
6102;DHT22;3081;50.584;7.032;2023-06-19T15:01:48;48.10;33.30
6102;DHT22;3081;50.584;7.032;2023-06-19T15:04:16;48.20;32.40
6102;DHT22;3081;50.584;7.032;2023-06-19T15:06:43;46.60;33.30
6102;DHT22;3081;50.584;7.032;2023-06-19T15:09:10;44.80;34.70
6102;DHT22;3081;50.584;7.032;2023-06-19T15:11:37;44.00;36.00
6102;DHT22;3081;50.584;7.032;2023-06-19T15:14:04;43.50;35.90
6102;DHT22;3081;50.584;7.032;2023-06-19T15:16:31;42.80;36.60
6102;DHT22;3081;50.584;7.032;2023-06-19T15:18:58;42.00;37.30
6102;DHT22;3081;50.584;7.032;2023-06-19T15:21:27;41.00;37.90
6102;DHT22;3081;50.584;7.032;2023-06-19T15:23:54;39.40;39.70
6102;DHT22;3081;50.584;7.032;2023-06-19T15:26:21;38.50;40.90
6102;DHT22;3081;50.584;7.032;2023-06-19T15:28:48;37.80;41.50
6102;DHT22;3081;50.584;7.032;2023-06-19T15:31:20;37.10;42.80
6102;DHT22;3081;50.584;7.032;2023-06-19T15:33:46;36.40;43.60
6102;DHT22;3081;50.584;7.032;2023-06-19T15:36:13;35.70;44.70
6102;DHT22;3081;50.584;7.032;2023-06-19T15:38:42;35.60;45.10
6102;DHT22;3081;50.584;7.032;2023-06-19T15:41:09;35.80;44.60
6102;DHT22;3081;50.584;7.032;2023-06-19T15:43:36;36.00;44.60
6102;DHT22;3081;50.584;7.032;2023-06-19T15:46:03;36.30;44.00
6102;DHT22;3081;50.584;7.032;2023-06-19T15:48:32;37.30;44.30
6102;DHT22;3081;50.584;7.032;2023-06-19T15:50:59;38.50;42.10
6102;DHT22;3081;50.584;7.032;2023-06-19T15:53:26;38.70;41.40
6102;DHT22;3081;50.584;7.032;2023-06-19T15:55:54;38.70;41.40
6102;DHT22;3081;50.584;7.032;2023-06-19T15:58:21;38.80;41.20
6102;DHT22;3081;50.584;7.032;2023-06-19T16:00:48;38.80;41.30
6102;DHT22;3081;50.584;7.032;2023-06-19T16:03:18;39.50;40.70
6102;DHT22;3081;50.584;7.032;2023-06-19T16:05:45;41.70;39.70